Chain of Rocks, Missouri
Current Conditions -  °F | °C
As of 10:54 PM on Friday 19 Dec 2014 (Local Time) from KSET Reporting Station
Overcast Overcast  
Wind Chill: -1°   Ceiling: 5000
Heat Index:   Visibility: 7mi
Dew Point: -2°   Wind: 5mph
Humidity: 82%   Direction: 110°ESE
Pressure: 30.27"   Gusts: NA
Location:  38.9362°N, 90.7728°W
Report Text: KSET 200454Z AUTO 11004KT 7SM OVC050 01/M02 A3027 RMK AO2 SLP252 T00111017
Loading
Personal Weather Stations






























Interactive Weather Map New forecast layout! Learn more

10-Day Weather Forecast

Advertisements
Track Severe Weather on mobile